sensor_id;sensor_type;location;lat;lon;timestamp;temperature;humidity
3053;DHT22;1536;51.098;6.414;2022-12-18T00:01:57;-0.20;99.90
3053;DHT22;1536;51.098;6.414;2022-12-18T00:04:25;-0.20;99.90
3053;DHT22;1536;51.098;6.414;2022-12-18T00:06:52;-0.20;99.90
3053;DHT22;1536;51.098;6.414;2022-12-18T00:09:19;-0.20;99.90
3053;DHT22;1536;51.098;6.414;2022-12-18T00:11:48;-0.20;99.90
3053;DHT22;1536;51.098;6.414;2022-12-18T00:14:15;-0.20;99.90
3053;DHT22;1536;51.098;6.414;2022-12-18T00:16:44;-0.20;99.90
3053;DHT22;1536;51.098;6.414;2022-12-18T00:19:11;-0.20;99.90
3053;DHT22;1536;51.098;6.414;2022-12-18T00:21:38;-0.20;99.90
3053;DHT22;1536;51.098;6.414;2022-12-18T00:24:05;-0.20;99.90
3053;DHT22;1536;51.098;6.414;2022-12-18T00:26:34;-0.10;99.90
3053;DHT22;1536;51.098;6.414;2022-12-18T00:29:05;-0.10;99.90
3053;DHT22;1536;51.098;6.414;2022-12-18T00:31:32;-0.20;99.90
3053;DHT22;1536;51.098;6.414;2022-12-18T00:33:59;-0.20;99.90
3053;DHT22;1536;51.098;6.414;2022-12-18T00:36:28;-0.20;99.90
3053;DHT22;1536;51.098;6.414;2022-12-18T00:38:56;-0.20;99.90
3053;DHT22;1536;51.098;6.414;2022-12-18T00:41:24;-0.20;99.90
3053;DHT22;1536;51.098;6.414;2022-12-18T00:44:19;-0.20;99.90
3053;DHT22;1536;51.098;6.414;2022-12-18T00:46:47;0.00;99.90
3053;DHT22;1536;51.098;6.414;2022-12-18T00:49:14;0.00;99.90
3053;DHT22;1536;51.098;6.414;2022-12-18T00:51:41;0.00;99.90
3053;DHT22;1536;51.098;6.414;2022-12-18T00:54:08;0.00;99.90
3053;DHT22;1536;51.098;6.414;2022-12-18T00:56:36;0.00;99.90
3053;DHT22;1536;51.098;6.414;2022-12-18T00:59:03;0.00;99.90
3053;DHT22;1536;51.098;6.414;2022-12-18T01:01:32;0.00;99.90
3053;DHT22;1536;51.098;6.414;2022-12-18T01:03:59;0.00;99.90
3053;DHT22;1536;51.098;6.414;2022-12-18T01:06:26;0.00;99.90
3053;DHT22;1536;51.098;6.414;2022-12-18T01:08:53;0.00;99.90
3053;DHT22;1536;51.098;6.414;2022-12-18T01:11:20;0.00;99.90
3053;DHT22;1536;51.098;6.414;2022-12-18T01:13:47;0.00;99.80
3053;DHT22;1536;51.098;6.414;2022-12-18T01:16:15;-0.10;99.70
3053;DHT22;1536;51.098;6.414;2022-12-18T01:18:44;0.00;99.70
3053;DHT22;1536;51.098;6.414;2022-12-18T01:21:13;-0.10;99.60
3053;DHT22;1536;51.098;6.414;2022-12-18T01:23:40;-0.10;99.60
3053;DHT22;1536;51.098;6.414;2022-12-18T01:26:08;-0.10;99.60
3053;DHT22;1536;51.098;6.414;2022-12-18T01:28:35;-0.10;99.60
3053;DHT22;1536;51.098;6.414;2022-12-18T01:31:12;-0.10;99.60
3053;DHT22;1536;51.098;6.414;2022-12-18T01:33:40;-0.10;99.60
3053;DHT22;1536;51.098;6.414;2022-12-18T01:36:08;-0.10;99.50
3053;DHT22;1536;51.098;6.414;2022-12-18T01:38:40;-0.10;99.50
3053;DHT22;1536;51.098;6.414;2022-12-18T01:41:09;-0.20;99.50
3053;DHT22;1536;51.098;6.414;2022-12-18T01:43:48;-0.20;99.50
3053;DHT22;1536;51.098;6.414;2022-12-18T01:46:15;-0.20;99.50
3053;DHT22;1536;51.098;6.414;2022-12-18T01:48:43;-0.10;99.50
3053;DHT22;1536;51.098;6.414;2022-12-18T01:51:12;-0.10;99.50
3053;DHT22;1536;51.098;6.414;2022-12-18T01:53:41;-0.10;99.60
3053;DHT22;1536;51.098;6.414;2022-12-18T01:56:11;-0.10;99.60
3053;DHT22;1536;51.098;6.414;2022-12-18T01:58:43;-0.10;99.50
3053;DHT22;1536;51.098;6.414;2022-12-18T02:01:12;-0.20;99.50
3053;DHT22;1536;51.098;6.414;2022-12-18T02:03:41;-0.20;99.50
3053;DHT22;1536;51.098;6.414;2022-12-18T02:06:13;-0.20;99.40
3053;DHT22;1536;51.098;6.414;2022-12-18T02:08:47;-0.20;99.40
3053;DHT22;1536;51.098;6.414;2022-12-18T02:11:18;-0.20;99.30
3053;DHT22;1536;51.098;6.414;2022-12-18T02:13:53;-0.30;99.30
3053;DHT22;1536;51.098;6.414;2022-12-18T02:16:27;-0.30;99.30
3053;DHT22;1536;51.098;6.414;2022-12-18T02:18:58;-0.20;99.30
3053;DHT22;1536;51.098;6.414;2022-12-18T02:21:34;-0.30;99.20
3053;DHT22;1536;51.098;6.414;2022-12-18T02:24:17;-0.30;99.20
3053;DHT22;1536;51.098;6.414;2022-12-18T02:26:51;-0.30;99.20
3053;DHT22;1536;51.098;6.414;2022-12-18T02:29:22;-0.30;99.20
3053;DHT22;1536;51.098;6.414;2022-12-18T02:31:54;-0.40;99.10
3053;DHT22;1536;51.098;6.414;2022-12-18T02:34:31;-0.40;99.10
3053;DHT22;1536;51.098;6.414;2022-12-18T02:37:02;-0.40;99.10
3053;DHT22;1536;51.098;6.414;2022-12-18T02:39:32;-0.40;99.10
3053;DHT22;1536;51.098;6.414;2022-12-18T02:42:01;-0.40;99.10
3053;DHT22;1536;51.098;6.414;2022-12-18T02:44:33;-0.40;99.10
3053;DHT22;1536;51.098;6.414;2022-12-18T02:47:00;-0.50;99.20
3053;DHT22;1536;51.098;6.414;2022-12-18T02:49:33;-0.50;99.30
3053;DHT22;1536;51.098;6.414;2022-12-18T02:52:07;-0.50;99.40
3053;DHT22;1536;51.098;6.414;2022-12-18T02:54:46;-0.50;99.50
3053;DHT22;1536;51.098;6.414;2022-12-18T02:57:23;-0.50;99.50
3053;DHT22;1536;51.098;6.414;2022-12-18T02:59:58;-0.50;99.50
3053;DHT22;1536;51.098;6.414;2022-12-18T03:02:33;-0.50;99.50
3053;DHT22;1536;51.098;6.414;2022-12-18T03:05:10;-0.50;99.90
3053;DHT22;1536;51.098;6.414;2022-12-18T03:07:42;-0.50;99.60
3053;DHT22;1536;51.098;6.414;2022-12-18T03:10:14;-0.50;99.70
3053;DHT22;1536;51.098;6.414;2022-12-18T03:12:47;-0.40;99.70
3053;DHT22;1536;51.098;6.414;2022-12-18T03:15:19;-0.40;99.70
3053;DHT22;1536;51.098;6.414;2022-12-18T03:17:52;-0.40;99.70
3053;DHT22;1536;51.098;6.414;2022-12-18T03:20:21;-0.40;99.60
3053;DHT22;1536;51.098;6.414;2022-12-18T03:22:51;-0.40;99.50
3053;DHT22;1536;51.098;6.414;2022-12-18T03:25:19;-0.30;99.50
3053;DHT22;1536;51.098;6.414;2022-12-18T03:27:50;-0.40;99.50
3053;DHT22;1536;51.098;6.414;2022-12-18T03:30:18;-0.40;99.50
3053;DHT22;1536;51.098;6.414;2022-12-18T03:32:48;-0.40;99.50
3053;DHT22;1536;51.098;6.414;2022-12-18T03:35:20;-0.40;99.40
3053;DHT22;1536;51.098;6.414;2022-12-18T03:37:48;-0.40;99.50
3053;DHT22;1536;51.098;6.414;2022-12-18T03:40:15;-0.40;99.60
3053;DHT22;1536;51.098;6.414;2022-12-18T03:42:48;-0.50;99.60
3053;DHT22;1536;51.098;6.414;2022-12-18T03:45:20;-0.50;99.60
3053;DHT22;1536;51.098;6.414;2022-12-18T03:47:57;-0.50;99.60
3053;DHT22;1536;51.098;6.414;2022-12-18T03:50:34;-0.50;99.60
3053;DHT22;1536;51.098;6.414;2022-12-18T03:53:09;-0.40;99.50
3053;DHT22;1536;51.098;6.414;2022-12-18T03:55:40;-0.30;99.40
3053;DHT22;1536;51.098;6.414;2022-12-18T03:58:10;-0.40;99.30
3053;DHT22;1536;51.098;6.414;2022-12-18T04:00:40;-0.30;99.40
3053;DHT22;1536;51.098;6.414;2022-12-18T04:03:08;-0.30;99.40
3053;DHT22;1536;51.098;6.414;2022-12-18T04:05:36;-0.30;99.30
3053;DHT22;1536;51.098;6.414;2022-12-18T04:08:04;-0.30;99.30
3053;DHT22;1536;51.098;6.414;2022-12-18T04:10:31;-0.30;99.30
3053;DHT22;1536;51.098;6.414;2022-12-18T04:12:58;-0.30;99.30
3053;DHT22;1536;51.098;6.414;2022-12-18T04:15:26;-0.30;99.30
3053;DHT22;1536;51.098;6.414;2022-12-18T04:17:53;-0.30;99.20
3053;DHT22;1536;51.098;6.414;2022-12-18T04:20:20;-0.30;99.20
3053;DHT22;1536;51.098;6.414;2022-12-18T04:22:46;-0.30;99.20
3053;DHT22;1536;51.098;6.414;2022-12-18T04:25:13;-0.30;99.10
3053;DHT22;1536;51.098;6.414;2022-12-18T04:27:40;-0.30;99.00
3053;DHT22;1536;51.098;6.414;2022-12-18T04:30:07;-0.30;99.10
3053;DHT22;1536;51.098;6.414;2022-12-18T04:32:36;-0.30;99.00
3053;DHT22;1536;51.098;6.414;2022-12-18T04:35:03;-0.30;99.00
3053;DHT22;1536;51.098;6.414;2022-12-18T04:37:32;-0.30;99.00
3053;DHT22;1536;51.098;6.414;2022-12-18T04:39:58;-0.30;99.00
3053;DHT22;1536;51.098;6.414;2022-12-18T04:42:25;-0.30;98.90
3053;DHT22;1536;51.098;6.414;2022-12-18T04:44:52;-0.30;99.00
3053;DHT22;1536;51.098;6.414;2022-12-18T04:47:18;-0.30;99.00
3053;DHT22;1536;51.098;6.414;2022-12-18T04:49:46;-0.40;99.00
3053;DHT22;1536;51.098;6.414;2022-12-18T04:52:13;-0.40;99.00
3053;DHT22;1536;51.098;6.414;2022-12-18T04:54:40;-0.40;99.00
3053;DHT22;1536;51.098;6.414;2022-12-18T04:57:06;-0.40;98.90
3053;DHT22;1536;51.098;6.414;2022-12-18T04:59:33;-0.40;98.90
3053;DHT22;1536;51.098;6.414;2022-12-18T05:02:00;-0.40;99.30
3053;DHT22;1536;51.098;6.414;2022-12-18T05:04:26;-0.40;99.00
3053;DHT22;1536;51.098;6.414;2022-12-18T05:06:55;-0.40;99.00
3053;DHT22;1536;51.098;6.414;2022-12-18T05:09:21;-0.40;99.10
3053;DHT22;1536;51.098;6.414;2022-12-18T05:11:48;-0.40;99.10
3053;DHT22;1536;51.098;6.414;2022-12-18T05:14:15;-0.50;99.20
3053;DHT22;1536;51.098;6.414;2022-12-18T05:16:41;-0.40;99.20
3053;DHT22;1536;51.098;6.414;2022-12-18T05:19:08;-0.40;99.10
3053;DHT22;1536;51.098;6.414;2022-12-18T05:21:35;-0.40;99.20
3053;DHT22;1536;51.098;6.414;2022-12-18T05:24:03;-0.40;99.20
3053;DHT22;1536;51.098;6.414;2022-12-18T05:26:31;-0.40;99.20
3053;DHT22;1536;51.098;6.414;2022-12-18T05:28:58;-0.40;99.20
3053;DHT22;1536;51.098;6.414;2022-12-18T05:31:25;-0.40;99.20
3053;DHT22;1536;51.098;6.414;2022-12-18T05:33:52;-0.40;99.10
3053;DHT22;1536;51.098;6.414;2022-12-18T05:36:19;-0.30;99.10
3053;DHT22;1536;51.098;6.414;2022-12-18T05:38:46;-0.30;99.00
3053;DHT22;1536;51.098;6.414;2022-12-18T05:41:14;-0.30;99.00
3053;DHT22;1536;51.098;6.414;2022-12-18T05:43:40;-0.30;99.00
3053;DHT22;1536;51.098;6.414;2022-12-18T05:46:09;-0.30;98.90
3053;DHT22;1536;51.098;6.414;2022-12-18T05:48:38;-0.30;99.30
3053;DHT22;1536;51.098;6.414;2022-12-18T05:51:06;-0.30;98.90
3053;DHT22;1536;51.098;6.414;2022-12-18T05:53:33;-0.30;98.90
3053;DHT22;1536;51.098;6.414;2022-12-18T05:56:01;-0.30;98.80
3053;DHT22;1536;51.098;6.414;2022-12-18T05:58:29;-0.30;98.80
3053;DHT22;1536;51.098;6.414;2022-12-18T06:00:56;-0.30;98.80
3053;DHT22;1536;51.098;6.414;2022-12-18T06:03:23;-0.30;98.70
3053;DHT22;1536;51.098;6.414;2022-12-18T06:05:50;-0.30;98.70
3053;DHT22;1536;51.098;6.414;2022-12-18T06:08:17;-0.40;98.60
3053;DHT22;1536;51.098;6.414;2022-12-18T06:10:49;-0.40;98.70
3053;DHT22;1536;51.098;6.414;2022-12-18T06:13:16;-0.40;98.70
3053;DHT22;1536;51.098;6.414;2022-12-18T06:15:44;-0.40;98.70
3053;DHT22;1536;51.098;6.414;2022-12-18T06:18:11;-0.40;98.70
3053;DHT22;1536;51.098;6.414;2022-12-18T06:20:38;-0.40;98.70
3053;DHT22;1536;51.098;6.414;2022-12-18T06:23:05;-0.40;98.80
3053;DHT22;1536;51.098;6.414;2022-12-18T06:25:31;-0.50;98.80
3053;DHT22;1536;51.098;6.414;2022-12-18T06:27:58;-0.50;98.80
3053;DHT22;1536;51.098;6.414;2022-12-18T06:30:25;-0.50;98.80
3053;DHT22;1536;51.098;6.414;2022-12-18T06:32:53;-0.50;98.90
3053;DHT22;1536;51.098;6.414;2022-12-18T06:35:20;-0.50;98.90
3053;DHT22;1536;51.098;6.414;2022-12-18T06:37:46;-0.50;99.00
3053;DHT22;1536;51.098;6.414;2022-12-18T06:40:13;-0.50;99.30
3053;DHT22;1536;51.098;6.414;2022-12-18T06:42:40;-0.40;98.90
3053;DHT22;1536;51.098;6.414;2022-12-18T06:45:07;-0.40;98.80
3053;DHT22;1536;51.098;6.414;2022-12-18T06:47:34;-0.30;98.80
3053;DHT22;1536;51.098;6.414;2022-12-18T06:50:02;-0.30;98.80
3053;DHT22;1536;51.098;6.414;2022-12-18T06:52:31;-0.40;98.70
3053;DHT22;1536;51.098;6.414;2022-12-18T06:54:58;-0.40;98.70
3053;DHT22;1536;51.098;6.414;2022-12-18T06:57:25;-0.40;98.70
3053;DHT22;1536;51.098;6.414;2022-12-18T06:59:51;-0.40;98.70
3053;DHT22;1536;51.098;6.414;2022-12-18T07:02:18;-0.40;98.70
3053;DHT22;1536;51.098;6.414;2022-12-18T07:04:45;-0.40;98.70
3053;DHT22;1536;51.098;6.414;2022-12-18T07:07:13;-0.40;98.70
3053;DHT22;1536;51.098;6.414;2022-12-18T07:09:39;-0.40;98.70
3053;DHT22;1536;51.098;6.414;2022-12-18T07:12:06;-0.40;98.70
3053;DHT22;1536;51.098;6.414;2022-12-18T07:14:33;-0.30;98.70
3053;DHT22;1536;51.098;6.414;2022-12-18T07:17:00;-0.30;98.70
3053;DHT22;1536;51.098;6.414;2022-12-18T07:19:27;-0.40;98.60
3053;DHT22;1536;51.098;6.414;2022-12-18T07:21:53;-0.40;98.60
3053;DHT22;1536;51.098;6.414;2022-12-18T07:24:21;-0.30;98.60
3053;DHT22;1536;51.098;6.414;2022-12-18T07:26:48;-0.40;98.50
3053;DHT22;1536;51.098;6.414;2022-12-18T07:29:15;-0.40;98.60
3053;DHT22;1536;51.098;6.414;2022-12-18T07:31:41;-0.40;98.50
3053;DHT22;1536;51.098;6.414;2022-12-18T07:34:10;-0.40;98.60
3053;DHT22;1536;51.098;6.414;2022-12-18T07:36:37;-0.40;98.60
3053;DHT22;1536;51.098;6.414;2022-12-18T07:39:03;-0.30;98.70
3053;DHT22;1536;51.098;6.414;2022-12-18T07:41:32;-0.30;98.60
3053;DHT22;1536;51.098;6.414;2022-12-18T07:43:58;-0.30;98.60
3053;DHT22;1536;51.098;6.414;2022-12-18T07:46:25;-0.40;98.60
3053;DHT22;1536;51.098;6.414;2022-12-18T07:48:52;-0.40;98.60
3053;DHT22;1536;51.098;6.414;2022-12-18T07:51:18;-0.40;98.60
3053;DHT22;1536;51.098;6.414;2022-12-18T07:53:45;-0.40;98.60
3053;DHT22;1536;51.098;6.414;2022-12-18T07:56:12;-0.30;98.70
3053;DHT22;1536;51.098;6.414;2022-12-18T07:58:40;-0.40;98.70
3053;DHT22;1536;51.098;6.414;2022-12-18T08:01:09;-0.40;98.70
3053;DHT22;1536;51.098;6.414;2022-12-18T08:03:37;-0.40;98.80
3053;DHT22;1536;51.098;6.414;2022-12-18T08:06:06;-0.40;98.80
3053;DHT22;1536;51.098;6.414;2022-12-18T08:08:34;-0.40;98.90
3053;DHT22;1536;51.098;6.414;2022-12-18T08:11:01;-0.40;98.90
3053;DHT22;1536;51.098;6.414;2022-12-18T08:13:28;-0.40;98.90
3053;DHT22;1536;51.098;6.414;2022-12-18T08:15:57;-0.40;98.90
3053;DHT22;1536;51.098;6.414;2022-12-18T08:18:24;-0.30;99.00
3053;DHT22;1536;51.098;6.414;2022-12-18T08:20:51;-0.30;99.00
3053;DHT22;1536;51.098;6.414;2022-12-18T08:23:21;-0.30;98.90
3053;DHT22;1536;51.098;6.414;2022-12-18T08:25:47;-0.30;99.00
3053;DHT22;1536;51.098;6.414;2022-12-18T08:28:15;-0.30;99.10
3053;DHT22;1536;51.098;6.414;2022-12-18T08:30:42;-0.20;99.20
3053;DHT22;1536;51.098;6.414;2022-12-18T08:33:10;-0.20;99.10
3053;DHT22;1536;51.098;6.414;2022-12-18T08:35:37;-0.10;99.20
3053;DHT22;1536;51.098;6.414;2022-12-18T08:38:04;-0.10;99.20
3053;DHT22;1536;51.098;6.414;2022-12-18T08:40:30;-0.10;99.20
3053;DHT22;1536;51.098;6.414;2022-12-18T08:42:57;-0.10;99.30
3053;DHT22;1536;51.098;6.414;2022-12-18T08:45:41;-0.10;99.40
3053;DHT22;1536;51.098;6.414;2022-12-18T08:48:09;-0.10;99.50
3053;DHT22;1536;51.098;6.414;2022-12-18T08:50:36;-0.10;99.60
3053;DHT22;1536;51.098;6.414;2022-12-18T08:53:05;-0.10;99.70
3053;DHT22;1536;51.098;6.414;2022-12-18T08:55:32;-0.20;99.90
3053;DHT22;1536;51.098;6.414;2022-12-18T08:57:59;-0.10;99.90
3053;DHT22;1536;51.098;6.414;2022-12-18T09:00:25;-0.10;99.90
3053;DHT22;1536;51.098;6.414;2022-12-18T09:02:52;-0.10;99.90
3053;DHT22;1536;51.098;6.414;2022-12-18T09:05:20;-0.10;99.90
3053;DHT22;1536;51.098;6.414;2022-12-18T09:07:47;-0.10;99.90
3053;DHT22;1536;51.098;6.414;2022-12-18T09:10:13;0.00;99.90
3053;DHT22;1536;51.098;6.414;2022-12-18T09:12:40;0.10;99.90
3053;DHT22;1536;51.098;6.414;2022-12-18T09:15:07;0.20;99.90
3053;DHT22;1536;51.098;6.414;2022-12-18T09:17:34;0.30;99.90
3053;DHT22;1536;51.098;6.414;2022-12-18T09:20:01;0.30;99.90
3053;DHT22;1536;51.098;6.414;2022-12-18T09:22:29;0.30;99.90
3053;DHT22;1536;51.098;6.414;2022-12-18T09:24:55;0.30;99.90
3053;DHT22;1536;51.098;6.414;2022-12-18T09:27:22;0.30;99.90
3053;DHT22;1536;51.098;6.414;2022-12-18T09:29:49;0.30;99.90
3053;DHT22;1536;51.098;6.414;2022-12-18T09:32:15;0.30;99.90
3053;DHT22;1536;51.098;6.414;2022-12-18T09:34:42;0.30;99.90
3053;DHT22;1536;51.098;6.414;2022-12-18T09:37:09;0.40;99.90
3053;DHT22;1536;51.098;6.414;2022-12-18T09:39:38;0.40;99.90
3053;DHT22;1536;51.098;6.414;2022-12-18T09:42:05;0.40;99.90
3053;DHT22;1536;51.098;6.414;2022-12-18T09:44:35;0.40;99.90
3053;DHT22;1536;51.098;6.414;2022-12-18T09:47:09;0.50;99.90
3053;DHT22;1536;51.098;6.414;2022-12-18T09:49:41;0.50;99.90
3053;DHT22;1536;51.098;6.414;2022-12-18T09:52:12;0.60;99.90
3053;DHT22;1536;51.098;6.414;2022-12-18T09:54:44;0.60;99.90
3053;DHT22;1536;51.098;6.414;2022-12-18T09:57:15;0.70;99.90
3053;DHT22;1536;51.098;6.414;2022-12-18T09:59:44;0.70;99.90
3053;DHT22;1536;51.098;6.414;2022-12-18T10:02:17;0.80;99.90
3053;DHT22;1536;51.098;6.414;2022-12-18T10:04:50;0.90;99.90
3053;DHT22;1536;51.098;6.414;2022-12-18T10:07:24;1.00;99.90
3053;DHT22;1536;51.098;6.414;2022-12-18T10:10:02;1.10;99.90
3053;DHT22;1536;51.098;6.414;2022-12-18T10:12:37;1.10;99.90
3053;DHT22;1536;51.098;6.414;2022-12-18T10:15:10;1.00;99.90
3053;DHT22;1536;51.098;6.414;2022-12-18T10:17:45;1.00;99.90
3053;DHT22;1536;51.098;6.414;2022-12-18T10:20:16;1.00;99.90
3053;DHT22;1536;51.098;6.414;2022-12-18T10:22:53;1.00;99.90
3053;DHT22;1536;51.098;6.414;2022-12-18T10:25:26;1.10;99.90
3053;DHT22;1536;51.098;6.414;2022-12-18T10:27:58;1.10;99.90
3053;DHT22;1536;51.098;6.414;2022-12-18T10:30:26;1.10;99.90
3053;DHT22;1536;51.098;6.414;2022-12-18T10:32:53;1.00;99.90
3053;DHT22;1536;51.098;6.414;2022-12-18T10:35:23;1.10;99.90
3053;DHT22;1536;51.098;6.414;2022-12-18T10:38:03;1.10;99.90
3053;DHT22;1536;51.098;6.414;2022-12-18T10:40:31;1.20;99.90
3053;DHT22;1536;51.098;6.414;2022-12-18T10:43:04;1.30;99.90
3053;DHT22;1536;51.098;6.414;2022-12-18T10:45:31;1.40;99.90
3053;DHT22;1536;51.098;6.414;2022-12-18T10:47:58;1.40;99.90
3053;DHT22;1536;51.098;6.414;2022-12-18T10:50:29;1.40;99.90
3053;DHT22;1536;51.098;6.414;2022-12-18T10:52:58;1.40;99.90
3053;DHT22;1536;51.098;6.414;2022-12-18T10:55:31;1.50;99.90
3053;DHT22;1536;51.098;6.414;2022-12-18T10:58:16;1.50;99.90
3053;DHT22;1536;51.098;6.414;2022-12-18T11:01:02;1.50;99.90
3053;DHT22;1536;51.098;6.414;2022-12-18T11:03:32;1.50;99.90
3053;DHT22;1536;51.098;6.414;2022-12-18T11:06:07;1.50;99.90
3053;DHT22;1536;51.098;6.414;2022-12-18T11:08:34;1.60;99.90
3053;DHT22;1536;51.098;6.414;2022-12-18T11:11:02;1.60;99.90
3053;DHT22;1536;51.098;6.414;2022-12-18T11:13:31;1.60;99.90
3053;DHT22;1536;51.098;6.414;2022-12-18T11:15:58;1.60;99.90
3053;DHT22;1536;51.098;6.414;2022-12-18T11:18:27;1.70;99.90
3053;DHT22;1536;51.098;6.414;2022-12-18T11:20:56;1.80;99.90
3053;DHT22;1536;51.098;6.414;2022-12-18T11:23:24;1.80;99.90
3053;DHT22;1536;51.098;6.414;2022-12-18T11:25:53;1.80;99.90
3053;DHT22;1536;51.098;6.414;2022-12-18T11:28:35;1.90;99.90
3053;DHT22;1536;51.098;6.414;2022-12-18T11:31:12;2.00;99.90
3053;DHT22;1536;51.098;6.414;2022-12-18T11:33:42;2.00;99.90
3053;DHT22;1536;51.098;6.414;2022-12-18T11:36:10;2.00;99.90
3053;DHT22;1536;51.098;6.414;2022-12-18T11:38:39;2.00;99.90
3053;DHT22;1536;51.098;6.414;2022-12-18T11:41:15;2.10;99.90
3053;DHT22;1536;51.098;6.414;2022-12-18T11:43:50;2.10;99.80
3053;DHT22;1536;51.098;6.414;2022-12-18T11:46:24;2.10;99.70
3053;DHT22;1536;51.098;6.414;2022-12-18T11:48:58;2.10;99.70
3053;DHT22;1536;51.098;6.414;2022-12-18T11:51:33;2.10;99.70
3053;DHT22;1536;51.098;6.414;2022-12-18T11:54:09;2.10;99.80
3053;DHT22;1536;51.098;6.414;2022-12-18T11:56:43;2.10;99.70
3053;DHT22;1536;51.098;6.414;2022-12-18T11:59:19;2.10;99.40
3053;DHT22;1536;51.098;6.414;2022-12-18T12:01:51;2.10;98.90
3053;DHT22;1536;51.098;6.414;2022-12-18T12:04:59;2.00;99.20
3053;DHT22;1536;51.098;6.414;2022-12-18T12:07:37;2.00;99.40
3053;DHT22;1536;51.098;6.414;2022-12-18T12:10:19;2.00;99.30
3053;DHT22;1536;51.098;6.414;2022-12-18T12:12:59;2.00;99.20
3053;DHT22;1536;51.098;6.414;2022-12-18T12:15:35;2.00;99.00
3053;DHT22;1536;51.098;6.414;2022-12-18T12:18:16;2.00;99.00
3053;DHT22;1536;51.098;6.414;2022-12-18T12:20:52;2.10;99.00
3053;DHT22;1536;51.098;6.414;2022-12-18T12:23:29;2.10;98.80
3053;DHT22;1536;51.098;6.414;2022-12-18T12:26:04;2.10;98.80
3053;DHT22;1536;51.098;6.414;2022-12-18T12:28:52;2.10;98.80
3053;DHT22;1536;51.098;6.414;2022-12-18T12:31:30;2.10;98.70
3053;DHT22;1536;51.098;6.414;2022-12-18T12:34:08;2.20;98.80
3053;DHT22;1536;51.098;6.414;2022-12-18T12:36:45;2.20;98.60
3053;DHT22;1536;51.098;6.414;2022-12-18T12:39:20;2.20;98.50
3053;DHT22;1536;51.098;6.414;2022-12-18T12:41:48;2.30;98.40
3053;DHT22;1536;51.098;6.414;2022-12-18T12:44:34;2.30;98.30
3053;DHT22;1536;51.098;6.414;2022-12-18T12:47:11;2.30;98.40
3053;DHT22;1536;51.098;6.414;2022-12-18T12:49:40;2.30;98.50
3053;DHT22;1536;51.098;6.414;2022-12-18T12:52:16;2.30;98.20
3053;DHT22;1536;51.098;6.414;2022-12-18T12:54:45;2.30;98.20
3053;DHT22;1536;51.098;6.414;2022-12-18T12:57:16;2.30;98.10
3053;DHT22;1536;51.098;6.414;2022-12-18T12:59:49;2.30;98.10
3053;DHT22;1536;51.098;6.414;2022-12-18T13:02:23;2.30;98.00
3053;DHT22;1536;51.098;6.414;2022-12-18T13:04:59;2.30;98.20
3053;DHT22;1536;51.098;6.414;2022-12-18T13:07:31;2.30;98.20
3053;DHT22;1536;51.098;6.414;2022-12-18T13:10:23;2.30;98.20
3053;DHT22;1536;51.098;6.414;2022-12-18T13:12:58;2.40;98.20
3053;DHT22;1536;51.098;6.414;2022-12-18T13:15:34;2.40;98.00
3053;DHT22;1536;51.098;6.414;2022-12-18T13:18:10;2.50;98.10
3053;DHT22;1536;51.098;6.414;2022-12-18T13:20:40;2.50;98.10
3053;DHT22;1536;51.098;6.414;2022-12-18T13:23:27;2.50;97.90
3053;DHT22;1536;51.098;6.414;2022-12-18T13:25:54;2.50;97.90
3053;DHT22;1536;51.098;6.414;2022-12-18T13:28:24;2.60;97.90
3053;DHT22;1536;51.098;6.414;2022-12-18T13:31:10;2.60;97.90
3053;DHT22;1536;51.098;6.414;2022-12-18T13:33:41;2.50;97.70
3053;DHT22;1536;51.098;6.414;2022-12-18T13:36:13;2.50;97.60
3053;DHT22;1536;51.098;6.414;2022-12-18T13:38:40;2.50;97.60
3053;DHT22;1536;51.098;6.414;2022-12-18T13:41:23;2.50;97.70
3053;DHT22;1536;51.098;6.414;2022-12-18T13:43:50;2.50;97.70
3053;DHT22;1536;51.098;6.414;2022-12-18T13:46:20;2.50;97.90
3053;DHT22;1536;51.098;6.414;2022-12-18T13:48:55;2.50;98.00
3053;DHT22;1536;51.098;6.414;2022-12-18T13:51:24;2.50;97.90
3053;DHT22;1536;51.098;6.414;2022-12-18T13:53:53;2.50;98.00
3053;DHT22;1536;51.098;6.414;2022-12-18T13:56:25;2.50;98.20
3053;DHT22;1536;51.098;6.414;2022-12-18T13:59:15;2.50;98.30
3053;DHT22;1536;51.098;6.414;2022-12-18T14:01:44;2.50;98.40
3053;DHT22;1536;51.098;6.414;2022-12-18T14:04:20;2.50;98.40
3053;DHT22;1536;51.098;6.414;2022-12-18T14:06:49;2.50;98.40
3053;DHT22;1536;51.098;6.414;2022-12-18T14:09:19;2.50;98.40
3053;DHT22;1536;51.098;6.414;2022-12-18T14:11:48;2.50;98.30
3053;DHT22;1536;51.098;6.414;2022-12-18T14:14:16;2.50;98.30
3053;DHT22;1536;51.098;6.414;2022-12-18T14:16:43;2.50;98.30
3053;DHT22;1536;51.098;6.414;2022-12-18T14:19:14;2.60;98.30
3053;DHT22;1536;51.098;6.414;2022-12-18T14:21:46;2.60;98.20
3053;DHT22;1536;51.098;6.414;2022-12-18T14:24:15;2.60;98.10
3053;DHT22;1536;51.098;6.414;2022-12-18T14:26:42;2.60;98.00
3053;DHT22;1536;51.098;6.414;2022-12-18T14:29:22;2.60;98.20
3053;DHT22;1536;51.098;6.414;2022-12-18T14:32:04;2.70;97.50
3053;DHT22;1536;51.098;6.414;2022-12-18T14:34:32;2.60;97.40
3053;DHT22;1536;51.098;6.414;2022-12-18T14:36:59;2.60;97.20
3053;DHT22;1536;51.098;6.414;2022-12-18T14:39:26;2.60;97.20
3053;DHT22;1536;51.098;6.414;2022-12-18T14:41:52;2.60;97.20
3053;DHT22;1536;51.098;6.414;2022-12-18T14:44:19;2.60;97.10
3053;DHT22;1536;51.098;6.414;2022-12-18T14:46:48;2.60;97.10
3053;DHT22;1536;51.098;6.414;2022-12-18T14:49:21;2.60;97.00
3053;DHT22;1536;51.098;6.414;2022-12-18T14:51:52;2.60;97.10
3053;DHT22;1536;51.098;6.414;2022-12-18T14:54:20;2.60;97.00
3053;DHT22;1536;51.098;6.414;2022-12-18T14:56:49;2.60;97.10
3053;DHT22;1536;51.098;6.414;2022-12-18T14:59:20;2.60;97.10
3053;DHT22;1536;51.098;6.414;2022-12-18T15:01:54;2.60;97.00
3053;DHT22;1536;51.098;6.414;2022-12-18T15:04:26;2.60;96.90
3053;DHT22;1536;51.098;6.414;2022-12-18T15:07:06;2.70;97.00
3053;DHT22;1536;51.098;6.414;2022-12-18T15:09:34;2.70;96.80
3053;DHT22;1536;51.098;6.414;2022-12-18T15:12:01;2.70;96.70
3053;DHT22;1536;51.098;6.414;2022-12-18T15:14:34;2.70;96.80
3053;DHT22;1536;51.098;6.414;2022-12-18T15:17:03;2.60;96.70
3053;DHT22;1536;51.098;6.414;2022-12-18T15:19:38;2.60;96.70
3053;DHT22;1536;51.098;6.414;2022-12-18T15:22:18;2.60;96.70
3053;DHT22;1536;51.098;6.414;2022-12-18T15:24:46;2.60;96.70
3053;DHT22;1536;51.098;6.414;2022-12-18T15:27:31;2.50;97.00
3053;DHT22;1536;51.098;6.414;2022-12-18T15:32:44;2.60;96.70
3053;DHT22;1536;51.098;6.414;2022-12-18T15:35:15;2.60;96.70
3053;DHT22;1536;51.098;6.414;2022-12-18T15:37:43;2.50;96.80
3053;DHT22;1536;51.098;6.414;2022-12-18T15:40:13;2.60;96.80
3053;DHT22;1536;51.098;6.414;2022-12-18T15:42:41;2.50;96.70
3053;DHT22;1536;51.098;6.414;2022-12-18T15:45:25;2.50;96.90
3053;DHT22;1536;51.098;6.414;2022-12-18T15:47:52;2.40;97.00
3053;DHT22;1536;51.098;6.414;2022-12-18T15:50:19;2.40;96.90
3053;DHT22;1536;51.098;6.414;2022-12-18T15:52:49;2.40;97.10
3053;DHT22;1536;51.098;6.414;2022-12-18T15:55:19;2.30;97.20
3053;DHT22;1536;51.098;6.414;2022-12-18T15:58:03;2.30;97.30
3053;DHT22;1536;51.098;6.414;2022-12-18T16:00:31;2.20;97.30
3053;DHT22;1536;51.098;6.414;2022-12-18T16:02:58;2.20;97.50
3053;DHT22;1536;51.098;6.414;2022-12-18T16:05:26;2.20;97.60
3053;DHT22;1536;51.098;6.414;2022-12-18T16:07:54;2.30;97.70
3053;DHT22;1536;51.098;6.414;2022-12-18T16:10:21;2.30;97.70
3053;DHT22;1536;51.098;6.414;2022-12-18T16:12:49;2.30;97.70
3053;DHT22;1536;51.098;6.414;2022-12-18T16:15:16;2.30;97.80
3053;DHT22;1536;51.098;6.414;2022-12-18T16:17:43;2.30;97.70
3053;DHT22;1536;51.098;6.414;2022-12-18T16:20:12;2.30;97.90
3053;DHT22;1536;51.098;6.414;2022-12-18T16:22:40;2.30;97.90
3053;DHT22;1536;51.098;6.414;2022-12-18T16:25:16;2.30;97.90
3053;DHT22;1536;51.098;6.414;2022-12-18T16:27:43;2.30;97.90
3053;DHT22;1536;51.098;6.414;2022-12-18T16:30:13;2.30;98.00
3053;DHT22;1536;51.098;6.414;2022-12-18T16:32:40;2.30;97.90